Time;durP1;ratioP1;P1;durP2;ratioP2;P2;SDS_P1;SDS_P2;PMS_P1;PMS_P2;Temp;Humidity;BMP_temperature;BMP_pressure;BME280_temperature;BME280_humidity;BME280_pressure;Samples;Min_cycle;Max_cycle;Signal;HPM_P1;HPM_P2
2019/05/23 00:04:44;;;;;;;21.4;19.1;;;;;;;;;;;;;
2019/05/23 00:07:04;;;;;;;21;18.8;;;;;;;;;;;;;
2019/05/23 00:09:27;;;;;;;20.9;18.7;;;;;;;;;;;;;
2019/05/23 00:11:57;;;;;;;20.9;18.7;;;;;;;;;;;;;
2019/05/23 00:14:21;;;;;;;22.3;18.8;;;;;;;;;;;;;
2019/05/23 00:16:43;;;;;;;20.5;18.4;;;;;;;;;;;;;
2019/05/23 00:19:08;;;;;;;20.2;18.1;;;;;;;;;;;;;
2019/05/23 00:21:33;;;;;;;20.7;18.5;;;;;;;;;;;;;
2019/05/23 00:23:59;;;;;;;21.1;18.9;;;;;;;;;;;;;
2019/05/23 00:26:23;;;;;;;19.2;17.2;;;;;;;;;;;;;
2019/05/23 00:28:49;;;;;;;20.3;18.2;;;;;;;;;;;;;
2019/05/23 00:31:29;;;;;;;19.5;17.4;;;;;;;;;;;;;
2019/05/23 00:33:39;;;;;;;20.1;18;;;;;;;;;;;;;
2019/05/23 00:36:04;;;;;;;20.3;18.2;;;;;;;;;;;;;
2019/05/23 00:38:29;;;;;;;21.5;18.2;;;;;;;;;;;;;
2019/05/23 00:41:01;;;;;;;18.8;16.8;;;;;;;;;;;;;
2019/05/23 00:43:26;;;;;;;19.3;17.3;;;;;;;;;;;;;
2019/05/23 00:45:51;;;;;;;19.9;17.8;;;;;;;;;;;;;
2019/05/23 00:48:17;;;;;;;19.8;17.8;;;;;;;;;;;;;
2019/05/23 00:50:42;;;;;;;19.7;17.6;;;;;;;;;;;;;
2019/05/23 00:53:07;;;;;;;18.4;16.5;;;;;;;;;;;;;
2019/05/23 00:55:32;;;;;;;19;17.1;;;;;;;;;;;;;
2019/05/23 00:57:58;;;;;;;20.1;18;;;;;;;;;;;;;
2019/05/23 01:00:24;;;;;;;19.4;17.4;;;;;;;;;;;;;
2019/05/23 01:02:48;;;;;;;20.6;18.4;;;;;;;;;;;;;
2019/05/23 01:05:13;;;;;;;20;17.9;;;;;;;;;;;;;
2019/05/23 01:07:38;;;;;;;19.1;17.1;;;;;;;;;;;;;
2019/05/23 01:10:03;;;;;;;21.1;18.9;;;;;;;;;;;;;
2019/05/23 01:12:28;;;;;;;20.9;18.7;;;;;;;;;;;;;
2019/05/23 01:14:53;;;;;;;20.5;18.4;;;;;;;;;;;;;
2019/05/23 01:17:18;;;;;;;20.3;18.1;;;;;;;;;;;;;
2019/05/23 01:19:43;;;;;;;19.6;17.6;;;;;;;;;;;;;
2019/05/23 01:22:11;;;;;;;19.9;17.9;;;;;;;;;;;;;
2019/05/23 01:24:36;;;;;;;20.2;18.1;;;;;;;;;;;;;
2019/05/23 01:27:02;;;;;;;19.8;17.8;;;;;;;;;;;;;
2019/05/23 01:29:27;;;;;;;18.6;16.7;;;;;;;;;;;;;
2019/05/23 01:31:57;;;;;;;20.8;18.5;;;;;;;;;;;;;
2019/05/23 01:34:17;;;;;;;20.4;18.2;;;;;;;;;;;;;
2019/05/23 01:36:42;;;;;;;20.7;18.5;;;;;;;;;;;;;
2019/05/23 01:39:08;;;;;;;20.4;18.3;;;;;;;;;;;;;
2019/05/23 01:41:32;;;;;;;19.7;17.7;;;;;;;;;;;;;
2019/05/23 01:43:58;;;;;;;21;18.9;;;;;;;;;;;;;
2019/05/23 01:46:23;;;;;;;19.9;17.8;;;;;;;;;;;;;
2019/05/23 01:48:48;;;;;;;19.9;17.8;;;;;;;;;;;;;
2019/05/23 01:51:13;;;;;;;20.1;18;;;;;;;;;;;;;
2019/05/23 01:53:40;;;;;;;19.4;17.4;;;;;;;;;;;;;
2019/05/23 01:56:05;;;;;;;19.3;17.3;;;;;;;;;;;;;
2019/05/23 01:58:40;;;;;;;20.1;18;;;;;;;;;;;;;
2019/05/23 02:01:13;;;;;;;19.4;17.3;;;;;;;;;;;;;
2019/05/23 02:03:38;;;;;;;19.4;17.4;;;;;;;;;;;;;
2019/05/23 02:06:03;;;;;;;18.2;16.3;;;;;;;;;;;;;
2019/05/23 02:08:28;;;;;;;17.7;15.9;;;;;;;;;;;;;
2019/05/23 02:10:53;;;;;;;16.9;15.1;;;;;;;;;;;;;
2019/05/23 02:13:18;;;;;;;18.2;15.7;;;;;;;;;;;;;
2019/05/23 02:15:44;;;;;;;17.1;15.4;;;;;;;;;;;;;
2019/05/23 02:18:09;;;;;;;17.3;15.3;;;;;;;;;;;;;
2019/05/23 02:20:34;;;;;;;17;15.3;;;;;;;;;;;;;
2019/05/23 02:22:59;;;;;;;17.3;15.4;;;;;;;;;;;;;
2019/05/23 02:25:24;;;;;;;16.3;14.6;;;;;;;;;;;;;
2019/05/23 02:27:49;;;;;;;16;14.3;;;;;;;;;;;;;
2019/05/23 02:30:15;;;;;;;16.4;14.7;;;;;;;;;;;;;
2019/05/23 02:32:40;;;;;;;16.1;14.4;;;;;;;;;;;;;
2019/05/23 02:35:11;;;;;;;16.2;14.5;;;;;;;;;;;;;
2019/05/23 02:37:54;;;;;;;15.9;14.2;;;;;;;;;;;;;
2019/05/23 02:40:06;;;;;;;16.5;14.8;;;;;;;;;;;;;
2019/05/23 02:42:32;;;;;;;17.2;14.6;;;;;;;;;;;;;
2019/05/23 02:44:45;;;;;;;16.1;14.5;;;;;;;;;;;;;
2019/05/23 02:47:22;;;;;;;16.5;14.8;;;;;;;;;;;;;
2019/05/23 02:49:36;;;;;;;16.7;14.9;;;;;;;;;;;;;
2019/05/23 02:52:01;;;;;;;16.4;14.7;;;;;;;;;;;;;
2019/05/23 02:54:26;;;;;;;17.3;15.4;;;;;;;;;;;;;
2019/05/23 02:56:51;;;;;;;16.7;14.9;;;;;;;;;;;;;
2019/05/23 02:59:18;;;;;;;16.4;14.7;;;;;;;;;;;;;
2019/05/23 03:01:53;;;;;;;16.7;15;;;;;;;;;;;;;
2019/05/23 03:04:09;;;;;;;16.6;14.8;;;;;;;;;;;;;
2019/05/23 03:06:32;;;;;;;15.8;14.2;;;;;;;;;;;;;
2019/05/23 03:08:57;;;;;;;15.6;14;;;;;;;;;;;;;
2019/05/23 03:11:22;;;;;;;15.5;14;;;;;;;;;;;;;
2019/05/23 03:13:47;;;;;;;15.4;13.8;;;;;;;;;;;;;
2019/05/23 03:16:12;;;;;;;16.9;15.2;;;;;;;;;;;;;
2019/05/23 03:18:37;;;;;;;15.7;14.1;;;;;;;;;;;;;
2019/05/23 03:21:02;;;;;;;15.8;14.2;;;;;;;;;;;;;
2019/05/23 03:23:27;;;;;;;15.3;13.7;;;;;;;;;;;;;
2019/05/23 03:25:52;;;;;;;15.5;13.9;;;;;;;;;;;;;
2019/05/23 03:28:18;;;;;;;15.2;13.6;;;;;;;;;;;;;
2019/05/23 03:30:45;;;;;;;15.7;14.2;;;;;;;;;;;;;
2019/05/23 03:33:09;;;;;;;16.6;14.6;;;;;;;;;;;;;
2019/05/23 03:35:42;;;;;;;15.7;14.1;;;;;;;;;;;;;
2019/05/23 03:37:58;;;;;;;15.9;14.3;;;;;;;;;;;;;
2019/05/23 03:40:24;;;;;;;16.1;14.4;;;;;;;;;;;;;
2019/05/23 03:42:49;;;;;;;16.3;14;;;;;;;;;;;;;
2019/05/23 03:45:16;;;;;;;16.4;13.8;;;;;;;;;;;;;
2019/05/23 03:47:39;;;;;;;15.1;13.6;;;;;;;;;;;;;
2019/05/23 03:50:06;;;;;;;15.8;14;;;;;;;;;;;;;
2019/05/23 03:52:30;;;;;;;16;13.6;;;;;;;;;;;;;
2019/05/23 03:54:55;;;;;;;15.6;13.8;;;;;;;;;;;;;
2019/05/23 03:57:22;;;;;;;15.3;13.7;;;;;;;;;;;;;
2019/05/23 03:59:47;;;;;;;17.4;15.6;;;;;;;;;;;;;
2019/05/23 04:02:38;;;;;;;16.8;15.2;;;;;;;8.74;91.55762;963.7996;;;;
2019/05/23 04:05:02;;;;;;;17.4;15.6;;;;;;;8.73;91.36133;963.7958;;;;
2019/05/23 04:07:28;;;;;;;17.6;15.6;;;;;;;8.65;91.56348;963.8104;;;;
2019/05/23 04:09:53;;;;;;;17.5;15.6;;;;;;;8.67;91.03809;963.805;;;;
2019/05/23 04:12:18;;;;;;;17.5;15.6;;;;;;;8.7;91.77734;963.7898;;;;
2019/05/23 04:14:45;;;;;;;18;15.8;;;;;;;8.7;91.76758;963.8069;;;;
2019/05/23 04:17:09;;;;;;;18.5;16.3;;;;;;;8.71;91.93066;963.7717;;;;
2019/05/23 04:19:36;;;;;;;17.3;15.5;;;;;;;8.69;91.09961;963.7644;;;;
2019/05/23 04:22:01;;;;;;;18.3;15.9;;;;;;;8.73;92.08301;963.8217;;;;
2019/05/23 04:24:26;;;;;;;18.3;16.3;;;;;;;8.75;91.6416;963.803;;;;
2019/05/23 04:26:51;;;;;;;19.5;17;;;;;;;8.75;91.33008;963.8078;;;;
2019/05/23 04:29:17;;;;;;;18.7;16.7;;;;;;;8.77;91.90527;963.8889;;;;
2019/05/23 04:31:42;;;;;;;18.5;16.5;;;;;;;8.79;91.79688;963.8699;;;;
2019/05/23 04:34:07;;;;;;;19.2;17.1;;;;;;;8.78;91.40723;963.9698;;;;
2019/05/23 04:36:32;;;;;;;17.3;15.5;;;;;;;8.92;90.89648;963.9426;;;;
2019/05/23 04:38:57;;;;;;;18;16.1;;;;;;;8.96;90.40137;963.8439;;;;
2019/05/23 04:41:22;;;;;;;18.8;16.3;;;;;;;8.97;91.08008;963.8781;;;;
2019/05/23 04:43:49;;;;;;;18.2;16.3;;;;;;;9;90.71875;963.967;;;;
2019/05/23 04:46:14;;;;;;;22;17.6;;;;;;;9;90.47754;963.9581;;;;
2019/05/23 04:48:39;;;;;;;20.3;16.9;;;;;;;9.05;91.32422;964.0109;;;;
2019/05/23 04:51:04;;;;;;;19.1;17;;;;;;;9.03;90.94238;964.0167;;;;
2019/05/23 04:53:30;;;;;;;19.2;17.1;;;;;;;9.06;91.30371;963.9192;;;;
2019/05/23 04:55:55;;;;;;;18.9;16.6;;;;;;;9.04;91.27637;964.0034;;;;
2019/05/23 04:58:20;;;;;;;19.4;17.4;;;;;;;9.09;91.74902;963.9905;;;;
2019/05/23 05:00:50;;;;;;;19.1;17.1;;;;;;;9.13;91.21484;963.9746;;;;
2019/05/23 05:03:30;;;;;;;19.7;17.2;;;;;;;9.16;90.78711;963.9853;;;;
2019/05/23 05:05:55;;;;;;;19.9;17.4;;;;;;;9.24;90.93945;963.9664;;;;
2019/05/23 05:08:20;;;;;;;20.4;17.5;;;;;;;9.26;91.3584;963.9565;;;;
2019/05/23 05:10:47;;;;;;;22.4;18.1;;;;;;;9.29;91.60547;963.9885;;;;
2019/05/23 05:13:11;;;;;;;18.9;17;;;;;;;9.31;91.41406;964.0614;;;;
2019/05/23 05:15:36;;;;;;;22.9;18;;;;;;;9.29;90.6875;964.0015;;;;
2019/05/23 05:18:07;;;;;;;19.9;17.8;;;;;;;9.36;90.54199;964.0095;;;;
2019/05/23 05:20:38;;;;;;;21.3;18.6;;;;;;;9.44;91.44238;963.9988;;;;
2019/05/23 05:23:05;;;;;;;22.7;19.6;;;;;;;9.47;91.76953;963.9972;;;;
2019/05/23 05:25:30;;;;;;;20.6;18.3;;;;;;;9.5;90.97363;963.9771;;;;
2019/05/23 05:27:55;;;;;;;24.5;19.4;;;;;;;9.57;91.35645;964.0327;;;;
2019/05/23 05:30:20;;;;;;;23;20.5;;;;;;;9.63;91.08984;964.0978;;;;
2019/05/23 05:32:45;;;;;;;21.8;19.5;;;;;;;9.7;90.55566;964.0572;;;;
2019/05/23 05:35:12;;;;;;;22.7;19.9;;;;;;;9.76;90.83301;964.0833;;;;
2019/05/23 05:37:43;;;;;;;22.6;19.8;;;;;;;9.87;90.88965;964.0748;;;;
2019/05/23 05:40:13;;;;;;;24.7;21;;;;;;;9.93;91.21387;964.092;;;;
2019/05/23 05:42:40;;;;;;;23.4;20.3;;;;;;;10.01;90.35742;964.0594;;;;
2019/05/23 05:45:20;;;;;;;22.8;19.6;;;;;;;10.1;89.47852;964.1044;;;;
2019/05/23 05:47:45;;;;;;;21.6;19;;;;;;;10.21;89.0166;964.127;;;;
2019/05/23 05:50:11;;;;;;;24;20.3;;;;;;;10.26;89.90137;964.1486;;;;
2019/05/23 05:52:37;;;;;;;22.5;19.8;;;;;;;10.31;89.91309;964.1057;;;;
2019/05/23 05:55:01;;;;;;;25.1;21;;;;;;;10.39;90.27637;964.1209;;;;
2019/05/23 05:57:27;;;;;;;24.7;20.3;;;;;;;10.5;88.41016;964.1561;;;;
2019/05/23 05:59:52;;;;;;;27.1;21.5;;;;;;;10.66;86.45313;964.1085;;;;
2019/05/23 06:02:31;;;;;;;27.5;22;;;;;;;10.81;84.48926;964.105;;;;
2019/05/23 06:04:56;;;;;;;26.6;21.8;;;;;;;10.91;84.08301;964.1188;;;;
2019/05/23 06:09:47;;;;;;;26.8;21.4;;;;;;;11.03;82.75684;964.218;;;;
2019/05/23 06:12:12;;;;;;;24.3;21.2;;;;;;;11.12;82.10742;964.2406;;;;
2019/05/23 06:14:37;;;;;;;27;22.4;;;;;;;11.2;81.84668;964.2035;;;;
2019/05/23 06:17:03;;;;;;;25.3;20.8;;;;;;;11.28;81.71191;964.2276;;;;
2019/05/23 06:19:27;;;;;;;25.4;21.4;;;;;;;11.35;78.88574;964.1744;;;;
2019/05/23 06:21:52;;;;;;;25;21.9;;;;;;;11.47;79.99414;964.1635;;;;
2019/05/23 06:24:18;;;;;;;24.7;21.1;;;;;;;11.46;79.64453;964.1869;;;;
2019/05/23 06:26:43;;;;;;;25.5;21.7;;;;;;;11.51;80.43945;964.1649;;;;
2019/05/23 06:29:07;;;;;;;26.5;21.9;;;;;;;11.59;81.32129;964.158;;;;
2019/05/23 06:31:33;;;;;;;24.2;21.4;;;;;;;11.65;79.28906;964.1707;;;;
2019/05/23 06:33:58;;;;;;;24.1;21.2;;;;;;;11.69;79.42188;964.1755;;;;
2019/05/23 06:36:23;;;;;;;23.1;20.6;;;;;;;11.76;78.87012;964.183;;;;
2019/05/23 06:38:49;;;;;;;26.9;22.2;;;;;;;11.88;78.01563;964.1819;;;;
2019/05/23 06:41:13;;;;;;;25.3;22;;;;;;;11.86;80.79395;964.1878;;;;
2019/05/23 06:43:38;;;;;;;27.3;22.9;;;;;;;11.85;80.3291;964.2456;;;;
2019/05/23 06:46:06;;;;;;;23.5;20.9;;;;;;;11.94;77.97852;964.1505;;;;
2019/05/23 06:48:31;;;;;;;24;21.4;;;;;;;11.98;76.7168;964.1863;;;;
2019/05/23 06:50:56;;;;;;;26.4;21.6;;;;;;;12.08;77.16113;964.1907;;;;
2019/05/23 06:53:21;;;;;;;25.1;21.9;;;;;;;12.3;75.55859;964.2247;;;;
2019/05/23 06:55:46;;;;;;;25.5;22.8;;;;;;;12.23;76.78223;964.2125;;;;
2019/05/23 06:58:12;;;;;;;26.5;21.7;;;;;;;12.17;75.89551;964.1746;;;;
2019/05/23 07:00:37;;;;;;;28.2;22.9;;;;;;;12.28;77.30078;964.1647;;;;
2019/05/23 07:03:02;;;;;;;24.8;21.9;;;;;;;12.39;75.10059;964.1775;;;;
2019/05/23 07:05:27;;;;;;;26.1;22.2;;;;;;;12.42;77.7998;964.1527;;;;
2019/05/23 07:07:52;;;;;;;25.5;21.8;;;;;;;12.48;76.0293;964.2045;;;;
2019/05/23 07:10:24;;;;;;;26.1;21;;;;;;;12.6;76.17871;964.1194;;;;
2019/05/23 07:12:48;;;;;;;22.4;19.1;;;;;;;12.72;75.05371;964.1052;;;;
2019/05/23 07:15:13;;;;;;;20.4;18.2;;;;;;;12.68;75.78809;964.1209;;;;
2019/05/23 07:17:49;;;;;;;32.8;21.2;;;;;;;12.67;75.37012;964.1827;;;;
2019/05/23 07:20:14;;;;;;;55.8;26.3;;;;;;;12.83;75.50098;964.1911;;;;
2019/05/23 07:22:39;;;;;;;27.1;17.6;;;;;;;12.92;72.79688;964.1174;;;;
2019/05/23 07:25:05;;;;;;;24.9;17.7;;;;;;;13.03;72.2373;964.1383;;;;
2019/05/23 07:27:31;;;;;;;30.9;19.1;;;;;;;13.06;71.83691;964.1486;;;;
2019/05/23 07:29:57;;;;;;;20.4;17.7;;;;;;;12.99;72.36914;964.1025;;;;
2019/05/23 07:32:21;;;;;;;19.8;16.3;;;;;;;12.94;74.67578;964.0672;;;;
2019/05/23 07:34:46;;;;;;;20.5;18.1;;;;;;;13.12;71.63867;964.0595;;;;
2019/05/23 07:37:18;;;;;;;20.8;18.4;;;;;;;13.11;72.71387;964.0914;;;;
2019/05/23 07:39:43;;;;;;;18.6;16.6;;;;;;;13.16;71.51855;964.065;;;;
2019/05/23 07:42:25;;;;;;;16.3;14.6;;;;;;;13.2;71.33984;964.1052;;;;
2019/05/23 07:45:11;;;;;;;16.7;14.6;;;;;;;13.16;69.38867;964.1219;;;;
2019/05/23 07:47:34;;;;;;;16.5;14;;;;;;;13.1;71.1709;964.0706;;;;
2019/05/23 07:50:04;;;;;;;15.5;13.4;;;;;;;13.18;71.11621;964.0761;;;;
2019/05/23 07:52:29;;;;;;;14.1;12.6;;;;;;;13.31;67.86914;964.0522;;;;
2019/05/23 07:54:58;;;;;;;14.1;12.7;;;;;;;13.47;67.66406;964.0197;;;;
2019/05/23 07:57:19;;;;;;;14.3;12.5;;;;;;;13.54;66.06348;964.005;;;;
2019/05/23 07:59:51;;;;;;;15.6;13.4;;;;;;;13.46;65.07813;964.0905;;;;
2019/05/23 08:02:23;;;;;;;13.9;12.4;;;;;;;13.52;65.8877;964.0369;;;;
2019/05/23 08:04:51;;;;;;;14.4;12.5;;;;;;;13.5;65.60742;964.0652;;;;
2019/05/23 08:07:27;;;;;;;13.2;11.8;;;;;;;13.48;65.97363;964.032;;;;
2019/05/23 08:10:01;;;;;;;14;12.2;;;;;;;13.54;64.61426;963.9828;;;;
2019/05/23 08:12:26;;;;;;;14.2;12.7;;;;;;;13.6;63.45508;964.0206;;;;
2019/05/23 08:15:10;;;;;;;14.6;13.1;;;;;;;13.51;64.34473;963.9636;;;;
2019/05/23 08:17:45;;;;;;;17;12.7;;;;;;;13.54;64.08203;963.9657;;;;
2019/05/23 08:20:21;;;;;;;14.8;13.1;;;;;;;13.65;65.43164;963.9682;;;;
2019/05/23 08:22:55;;;;;;;13.8;12.3;;;;;;;13.7;63.49219;963.9109;;;;
2019/05/23 08:25:26;;;;;;;12.6;11.3;;;;;;;13.68;62.34082;963.9309;;;;
2019/05/23 08:27:50;;;;;;;13.2;11.8;;;;;;;13.8;65.08398;963.9367;;;;
2019/05/23 08:30:15;;;;;;;12.2;10.7;;;;;;;13.88;63.04199;963.8507;;;;
2019/05/23 08:32:56;;;;;;;12.3;11;;;;;;;14;62.41016;963.9141;;;;
2019/05/23 08:35:21;;;;;;;10;8.8;;;;;;;13.9;60.50391;963.8839;;;;
2019/05/23 08:38:02;;;;;;;9.7;8.5;;;;;;;14.01;59.35938;963.9656;;;;
2019/05/23 08:40:29;;;;;;;10.2;9.2;;;;;;;14.18;58.2002;963.9536;;;;
2019/05/23 08:42:54;;;;;;;10.3;9.2;;;;;;;14.04;59.35254;963.9235;;;;
2019/05/23 08:45:19;;;;;;;9.8;8.8;;;;;;;14.12;60.66309;963.907;;;;
2019/05/23 08:47:45;;;;;;;6.5;5.9;;;;;;;14.15;52.24316;963.9172;;;;
2019/05/23 08:50:10;;;;;;;9.9;7.3;;;;;;;14.04;53.92285;963.8751;;;;
2019/05/23 08:52:35;;;;;;;7.8;6.7;;;;;;;14.22;57.53223;963.8837;;;;
2019/05/23 08:55:01;;;;;;;9.3;7.5;;;;;;;14.4;57.8584;963.9196;;;;
2019/05/23 08:57:26;;;;;;;13;9.4;;;;;;;14.47;60.42285;963.9734;;;;
2019/05/23 08:59:52;;;;;;;9.7;8.7;;;;;;;14.54;55.26367;963.9108;;;;
2019/05/23 09:02:21;;;;;;;10.5;8.9;;;;;;;14.47;56.56738;963.8684;;;;
2019/05/23 09:04:46;;;;;;;9.4;8.4;;;;;;;14.47;56.25195;963.8038;;;;
2019/05/23 09:07:12;;;;;;;9;8.1;;;;;;;14.52;57.01465;963.7645;;;;
2019/05/23 09:09:47;;;;;;;13.8;8.1;;;;;;;14.5;55.43164;963.7089;;;;
2019/05/23 09:12:13;;;;;;;8.5;7.6;;;;;;;14.67;55.76758;963.8152;;;;
2019/05/23 09:14:40;;;;;;;9.7;7.8;;;;;;;14.69;52.65723;963.7122;;;;
2019/05/23 09:17:04;;;;;;;9.4;8.1;;;;;;;14.84;55.25391;963.7374;;;;
2019/05/23 09:19:50;;;;;;;9;8.1;;;;;;;14.87;53.38672;963.7344;;;;
2019/05/23 09:22:15;;;;;;;8.8;7.9;;;;;;;14.95;54.75684;963.757;;;;
2019/05/23 09:24:40;;;;;;;8.9;8;;;;;;;15.13;56.65137;963.774;;;;
2019/05/23 09:27:29;;;;;;;8.8;7.9;;;;;;;14.96;54.74609;963.7302;;;;
2019/05/23 09:30:07;;;;;;;8.3;7.4;;;;;;;15;57.18164;963.6951;;;;
2019/05/23 09:32:40;;;;;;;9.1;8.1;;;;;;;15.19;55.35742;963.7336;;;;
2019/05/23 09:35:05;;;;;;;9.5;8.6;;;;;;;15.01;55.35742;963.6944;;;;
2019/05/23 09:37:32;;;;;;;10.1;9.1;;;;;;;15.12;56.98828;963.7233;;;;
2019/05/23 09:39:57;;;;;;;10.8;9.7;;;;;;;15.06;58.13086;963.6588;;;;
2019/05/23 09:42:22;;;;;;;11.7;9.6;;;;;;;15.08;58.07617;963.6746;;;;
2019/05/23 09:44:47;;;;;;;11.3;9.8;;;;;;;15.21;55.11523;963.7224;;;;
2019/05/23 09:47:18;;;;;;;9.9;8.9;;;;;;;15.14;56.05957;963.6422;;;;
2019/05/23 09:49:43;;;;;;;10.4;9.3;;;;;;;14.93;56.17285;963.6627;;;;
2019/05/23 09:52:08;;;;;;;9.5;8.5;;;;;;;14.91;58.53027;963.6993;;;;
2019/05/23 09:54:36;;;;;;;10.6;9.5;;;;;;;14.93;57.70703;963.6364;;;;
2019/05/23 09:57:02;;;;;;;10;9;;;;;;;14.89;57.14355;963.6227;;;;
2019/05/23 09:59:27;;;;;;;10.6;9.5;;;;;;;14.92;56.14746;963.6813;;;;
2019/05/23 10:02:10;;;;;;;10.9;9.8;;;;;;;14.95;56.29297;963.6995;;;;
2019/05/23 10:04:51;;;;;;;10.9;9.6;;;;;;;14.86;56.87305;963.5994;;;;
2019/05/23 10:07:26;;;;;;;11;9.5;;;;;;;15.03;54.08105;963.5436;;;;
2019/05/23 10:09:50;;;;;;;10.8;9.6;;;;;;;14.98;53.02832;963.5356;;;;
2019/05/23 10:12:16;;;;;;;10.8;9.6;;;;;;;15.09;55.36719;963.5292;;;;
2019/05/23 10:14:41;;;;;;;10.2;9.2;;;;;;;15.21;54.99902;963.4777;;;;
2019/05/23 10:17:06;;;;;;;11.5;9.8;;;;;;;15.41;54.62793;963.4841;;;;
2019/05/23 10:19:31;;;;;;;10;9;;;;;;;15.53;56.59961;963.4979;;;;
2019/05/23 10:21:56;;;;;;;10.6;9.5;;;;;;;15.46;51.95801;963.3904;;;;
2019/05/23 10:24:21;;;;;;;10;8.6;;;;;;;15.59;52.18164;963.4523;;;;
2019/05/23 10:26:57;;;;;;;10.6;8.2;;;;;;;15.67;52.80859;963.4048;;;;
2019/05/23 10:29:22;;;;;;;9.9;8.9;;;;;;;15.62;53.50098;963.4188;;;;
2019/05/23 10:31:47;;;;;;;10.2;9.2;;;;;;;15.53;52.30371;963.3624;;;;
2019/05/23 10:34:13;;;;;;;9.9;8.9;;;;;;;15.72;51.62695;963.3513;;;;
2019/05/23 10:36:39;;;;;;;10.9;9.1;;;;;;;15.88;50.31738;963.3092;;;;
2019/05/23 10:39:11;;;;;;;9.8;8.7;;;;;;;15.89;50.25977;963.3744;;;;
2019/05/23 10:41:43;;;;;;;10.4;9.1;;;;;;;15.78;51.66992;963.35;;;;
2019/05/23 10:44:07;;;;;;;8.7;7.8;;;;;;;15.73;52.76953;963.2584;;;;
2019/05/23 10:46:32;;;;;;;8.3;7.5;;;;;;;15.77;52.4834;963.1808;;;;
2019/05/23 10:49:14;;;;;;;8.7;7.9;;;;;;;15.88;52.40332;963.199;;;;
2019/05/23 10:51:39;;;;;;;8.3;7.5;;;;;;;16.05;50.55957;963.2344;;;;
2019/05/23 10:54:05;;;;;;;8.7;7.8;;;;;;;15.99;50.52832;963.2711;;;;
2019/05/23 10:56:29;;;;;;;8.5;7.3;;;;;;;15.93;50.04492;963.2289;;;;
2019/05/23 11:00:38;;;;;;;8.4;7.6;;;;;;;16.22;48.45703;963.221;;;;
2019/05/23 11:03:05;;;;;;;7.9;7.1;;;;;;;16.27;49.53613;963.1719;;;;
2019/05/23 11:05:36;;;;;;;8.4;7.6;;;;;;;16.27;47.77344;963.1987;;;;
2019/05/23 11:08:07;;;;;;;7.2;6.5;;;;;;;16.21;50.01855;963.262;;;;
2019/05/23 11:10:31;;;;;;;8;7.2;;;;;;;16.2;49.93457;963.1534;;;;
2019/05/23 11:12:58;;;;;;;8;7.2;;;;;;;16.31;49.7959;963.1678;;;;
2019/05/23 11:15:40;;;;;;;9.7;8.1;;;;;;;16.14;49.01953;963.1467;;;;
2019/05/23 11:18:25;;;;;;;9.4;8.4;;;;;;;15.76;47.96387;963.1106;;;;
2019/05/23 11:20:53;;;;;;;8.2;7.4;;;;;;;15.93;48.28418;963.1245;;;;
2019/05/23 11:23:25;;;;;;;9;8.1;;;;;;;15.91;49.86719;963.1614;;;;
2019/05/23 11:25:44;;;;;;;7.9;7.1;;;;;;;16.03;49.86914;963.1398;;;;
2019/05/23 11:28:21;;;;;;;8.1;7.3;;;;;;;16.27;48.12402;963.0581;;;;
2019/05/23 11:30:49;;;;;;;9.3;7.4;;;;;;;16.47;46.39648;963.0323;;;;
2019/05/23 11:33:11;;;;;;;8.2;7.4;;;;;;;16.5;47.96289;963.0553;;;;
2019/05/23 11:35:35;;;;;;;7.1;6.4;;;;;;;16.59;46.61816;962.9766;;;;
2019/05/23 11:38:02;;;;;;;8;6.6;;;;;;;16.89;47.85352;962.8822;;;;
2019/05/23 11:40:27;;;;;;;6.8;6.1;;;;;;;16.86;46.91699;962.8856;;;;
2019/05/23 11:42:52;;;;;;;8.2;7.2;;;;;;;16.9;47.33984;962.8205;;;;
2019/05/23 11:45:18;;;;;;;7.5;6.6;;;;;;;17.09;47.52539;962.8881;;;;
2019/05/23 11:47:44;;;;;;;7.8;7;;;;;;;17.05;46.91309;962.8392;;;;
2019/05/23 11:50:16;;;;;;;9.1;6.9;;;;;;;17.05;48.44336;962.8438;;;;
2019/05/23 11:52:51;;;;;;;7.3;6.6;;;;;;;17.23;48.56836;962.7806;;;;
2019/05/23 11:55:21;;;;;;;8.3;6.6;;;;;;;17.19;46.30859;962.8285;;;;
2019/05/23 11:57:50;;;;;;;6.9;6.2;;;;;;;17.15;48.75879;962.7932;;;;
2019/05/23 12:00:18;;;;;;;6.5;5.9;;;;;;;17.15;46.86523;962.7009;;;;
2019/05/23 12:02:57;;;;;;;7.2;6.5;;;;;;;17.13;45.70605;962.7257;;;;
2019/05/23 12:05:27;;;;;;;7.1;6.4;;;;;;;17.2;46.90527;962.6694;;;;
2019/05/23 12:07:58;;;;;;;6.6;5.9;;;;;;;17.46;47.03809;962.7068;;;;
2019/05/23 12:10:23;;;;;;;7.2;6.1;;;;;;;17.53;44.73047;962.7167;;;;
2019/05/23 12:12:48;;;;;;;6.2;5.6;;;;;;;17.54;45.69043;962.6671;;;;
2019/05/23 12:15:24;;;;;;;6.6;5.6;;;;;;;17.91;45.0498;962.6609;;;;
2019/05/23 12:17:46;;;;;;;6.2;5;;;;;;;17.9;45.22559;962.6314;;;;
2019/05/23 12:20:19;;;;;;;6.4;5.8;;;;;;;18.04;44.23242;962.6251;;;;
2019/05/23 12:22:44;;;;;;;6.7;6;;;;;;;17.8;45.63672;962.5767;;;;
2019/05/23 12:25:10;;;;;;;5.2;4.7;;;;;;;17.91;47.41406;962.4894;;;;
2019/05/23 12:27:35;;;;;;;7;6.3;;;;;;;17.53;46.09961;962.527;;;;
2019/05/23 12:30:00;;;;;;;5.7;5.1;;;;;;;17.88;47.13086;962.4755;;;;
2019/05/23 12:32:25;;;;;;;7.5;5.4;;;;;;;17.95;46.4707;962.4852;;;;
2019/05/23 12:34:50;;;;;;;5.3;4.8;;;;;;;18.33;45.3623;962.4242;;;;
2019/05/23 12:37:15;;;;;;;6;5.3;;;;;;;18.84;43.82129;962.4363;;;;
2019/05/23 12:39:40;;;;;;;5.9;5.2;;;;;;;18.79;43.65137;962.4469;;;;
2019/05/23 12:42:05;;;;;;;5.5;4.9;;;;;;;18.88;43.29688;962.427;;;;
2019/05/23 12:44:37;;;;;;;5.8;5.2;;;;;;;19.29;42.64355;962.366;;;;
2019/05/23 12:47:05;;;;;;;5.9;4.9;;;;;;;19.23;42.83789;962.2939;;;;
2019/05/23 12:49:40;;;;;;;5.5;4.6;;;;;;;19.3;43.61914;962.295;;;;
2019/05/23 12:52:04;;;;;;;5;4.3;;;;;;;18.89;43.66113;962.3072;;;;
2019/05/23 12:54:29;;;;;;;5;4.5;;;;;;;18.98;43.07129;962.2791;;;;
2019/05/23 12:56:53;;;;;;;6.4;4.8;;;;;;;18.76;42.19434;962.3;;;;
2019/05/23 12:59:20;;;;;;;5.9;4.7;;;;;;;18.55;44.13184;962.2536;;;;
2019/05/23 13:01:54;;;;;;;6.9;4.5;;;;;;;18.96;44.47656;962.3173;;;;
2019/05/23 13:04:19;;;;;;;6.1;4.6;;;;;;;19.18;43.65527;962.2425;;;;
2019/05/23 13:06:54;;;;;;;5.3;4.8;;;;;;;19.6;47.46777;962.3022;;;;
2019/05/23 13:09:26;;;;;;;6.5;4.7;;;;;;;19.58;45.30273;962.2479;;;;
2019/05/23 13:11:51;;;;;;;6.2;4.8;;;;;;;19.1;42.53223;962.2076;;;;
2019/05/23 13:14:16;;;;;;;5.3;4.5;;;;;;;19.2;42.40039;962.2141;;;;
2019/05/23 13:16:46;;;;;;;4.9;4.3;;;;;;;19.5;41.27832;962.1422;;;;
2019/05/23 13:19:12;;;;;;;5.8;4.9;;;;;;;19.16;40.03711;962.1211;;;;
2019/05/23 13:21:37;;;;;;;4.4;4;;;;;;;19.23;41.58203;962.0775;;;;
2019/05/23 13:24:02;;;;;;;4.9;4;;;;;;;19.5;43.13379;962.0981;;;;
2019/05/23 13:26:27;;;;;;;4.9;3.9;;;;;;;19.81;39.80273;962.017;;;;
2019/05/23 13:28:52;;;;;;;4.6;4;;;;;;;19.85;40.5;962.0123;;;;
2019/05/23 13:31:17;;;;;;;7.7;4.4;;;;;;;19.87;37.02148;961.9444;;;;
2019/05/23 13:33:42;;;;;;;4.6;3.7;;;;;;;19.81;39.99023;961.9122;;;;
2019/05/23 13:36:07;;;;;;;4.4;3.6;;;;;;;19.5;40.86719;961.913;;;;
2019/05/23 13:38:32;;;;;;;4.2;3.8;;;;;;;19.2;42.43555;961.9364;;;;
2019/05/23 13:42:47;;;;;;;4.2;3.8;;;;;;;19.36;40.54785;961.9704;;;;
2019/05/23 13:43:23;;;;;;;4.5;3.8;;;;;;;19.67;42.83301;961.942;;;;
2019/05/23 13:45:48;;;;;;;4;3.6;;;;;;;19.57;44.13867;961.9232;;;;
2019/05/23 13:48:18;;;;;;;5.7;3.6;;;;;;;19.63;43.72168;961.8588;;;;
2019/05/23 13:50:43;;;;;;;4.2;3.8;;;;;;;19.72;41.0166;961.8734;;;;
2019/05/23 13:53:28;;;;;;;3.6;3.3;;;;;;;19.72;41.96777;961.8918;;;;
2019/05/23 13:55:53;;;;;;;4.4;3.8;;;;;;;19.68;41.92969;961.883;;;;
2019/05/23 13:58:37;;;;;;;5.3;4.1;;;;;;;19.37;39.7041;961.8544;;;;
2019/05/23 14:01:20;;;;;;;4.2;3.5;;;;;;;19.29;43.40625;961.7709;;;;
2019/05/23 14:04:05;;;;;;;4.8;3.4;;;;;;;19.52;41.93848;961.7831;;;;
2019/05/23 14:06:35;;;;;;;3.9;3.5;;;;;;;19.87;41.67578;961.7683;;;;
2019/05/23 14:09:01;;;;;;;4.3;3.6;;;;;;;19.49;40.41992;961.7736;;;;
2019/05/23 14:11:26;;;;;;;5.7;4.2;;;;;;;19.33;39.90039;961.7177;;;;
2019/05/23 14:14:03;;;;;;;6.2;3.5;;;;;;;19.38;42.05371;961.751;;;;
2019/05/23 14:16:35;;;;;;;4.3;3.3;;;;;;;19.44;41.60156;961.647;;;;
2019/05/23 14:18:56;;;;;;;3.3;3;;;;;;;19.7;42.01465;961.6685;;;;
2019/05/23 14:21:21;;;;;;;4.4;3.4;;;;;;;20.05;41.2002;961.7193;;;;
2019/05/23 14:23:46;;;;;;;4.1;3.4;;;;;;;20.14;40.43164;961.5847;;;;
2019/05/23 14:26:12;;;;;;;4.3;3.1;;;;;;;19.8;40.28418;961.6522;;;;
2019/05/23 14:28:36;;;;;;;5.4;3.3;;;;;;;20.26;41.3252;961.6277;;;;
2019/05/23 14:31:13;;;;;;;3.3;3;;;;;;;20.45;41.57813;961.6394;;;;
2019/05/23 14:33:38;;;;;;;6.2;3.4;;;;;;;20.49;38.78027;961.6692;;;;
2019/05/23 14:35:57;;;;;;;3.8;3.4;;;;;;;20.48;38.29785;961.6041;;;;
2019/05/23 14:38:21;;;;;;;4;3.6;;;;;;;20.31;37.42285;961.5987;;;;
2019/05/23 14:40:47;;;;;;;4;3.1;;;;;;;20.33;37.61328;961.6537;;;;
2019/05/23 14:43:24;;;;;;;3.2;2.9;;;;;;;20.2;38.9668;961.568;;;;
2019/05/23 14:45:53;;;;;;;2.9;2.6;;;;;;;21;40.24023;961.6319;;;;
2019/05/23 14:50:57;;;;;;;3.6;3.1;;;;;;;21.41;37.0918;961.5894;;;;
2019/05/23 14:53:05;;;;;;;4.8;2.8;;;;;;;21.75;41.44141;961.5369;;;;
2019/05/23 14:55:29;;;;;;;4.1;2.8;;;;;;;22.07;37.28906;961.5292;;;;
2019/05/23 14:57:54;;;;;;;4;2.8;;;;;;;22.23;34.48926;961.5097;;;;
2019/05/23 15:00:20;;;;;;;3.7;2.6;;;;;;;22.07;33.89648;961.4639;;;;
2019/05/23 15:02:45;;;;;;;3.9;3;;;;;;;21.49;35.25781;961.4632;;;;
2019/05/23 15:05:11;;;;;;;4.9;3;;;;;;;21.38;35.45996;961.5535;;;;
2019/05/23 15:07:37;;;;;;;3.3;2.7;;;;;;;21.4;38.83691;961.572;;;;
2019/05/23 15:10:03;;;;;;;2.9;2.4;;;;;;;21.14;37.6582;961.4724;;;;
2019/05/23 15:12:28;;;;;;;3.8;2.9;;;;;;;21.22;37.65332;961.4667;;;;
2019/05/23 15:14:58;;;;;;;4.2;2.6;;;;;;;21.43;37.26953;961.5069;;;;
2019/05/23 15:17:47;;;;;;;4.2;2.7;;;;;;;21.57;36.05469;961.4361;;;;
2019/05/23 15:20:12;;;;;;;4.1;2.8;;;;;;;21.61;36.02246;961.4167;;;;
2019/05/23 15:22:54;;;;;;;4.2;2.8;;;;;;;21.81;36.21484;961.3784;;;;
2019/05/23 15:25:20;;;;;;;4.5;2.8;;;;;;;21.59;37.62598;961.3308;;;;
2019/05/23 15:27:45;;;;;;;2.7;2.5;;;;;;;21.35;37.5459;961.3448;;;;
2019/05/23 15:30:10;;;;;;;5.1;3.2;;;;;;;20.75;39.47461;961.3189;;;;
2019/05/23 15:32:35;;;;;;;4.2;2.8;;;;;;;20.43;41.51855;961.3365;;;;
2019/05/23 15:35:00;;;;;;;3.8;2.6;;;;;;;20.16;40.02246;961.2814;;;;
2019/05/23 15:37:26;;;;;;;3.7;2.8;;;;;;;19.57;40.70801;961.275;;;;